ěÝzenÝ letovÚho provozu ╚eskÚ republiky
Letiste: LKBC Aktualizace: 29.07.2021 10:55:29  UTC
 METAR LKBC 29.07. 11:00 ...
METAR LKBC 291100Z AUTO 26015KT 9999 BKN060 23/12 Q1015=